Time;durP1;ratioP1;P1;durP2;ratioP2;P2;SDS_P1;SDS_P2;PMS_P1;PMS_P2;Temp;Humidity;BMP_temperature;BMP_pressure;BME280_temperature;BME280_humidity;BME280_pressure;Samples;Min_cycle;Max_cycle;Signal;HPM_P1;HPM_P2
2022/10/23 00:00:44;;;;;;;;;;;12.40;99.90;;;;;;5021020;28;20322;-77
2022/10/23 00:03:11;;;;;;;;;;;12.30;99.90;;;;;;5020815;28;20305;-77
2022/10/23 00:05:39;;;;;;;;;;;12.30;99.90;;;;;;5021293;28;20330;-77
2022/10/23 00:08:06;;;;;;;;;;;12.30;99.90;;;;;;5018967;28;20044;-77
2022/10/23 00:10:33;;;;;;;;;;;12.30;99.90;;;;;;5019019;28;20035;-77
2022/10/23 00:12:59;;;;;;;;;;;12.20;99.90;;;;;;5017841;28;20337;-78
2022/10/23 00:15:27;;;;;;;;;;;12.20;99.90;;;;;;5020986;28;20439;-78
2022/10/23 00:17:54;;;;;;;;;;;12.10;99.90;;;;;;5020435;28;19987;-77
2022/10/23 00:20:21;;;;;;;;;;;12.10;99.90;;;;;;5020833;28;20406;-77
2022/10/23 00:22:47;;;;;;;;;;;12.00;99.90;;;;;;5021816;28;20020;-78
2022/10/23 00:25:15;;;;;;;;;;;12.00;99.90;;;;;;5020928;28;20653;-77
2022/10/23 00:27:41;;;;;;;;;;;12.00;99.90;;;;;;5020950;28;19944;-78
2022/10/23 00:30:08;;;;;;;;;;;11.90;99.90;;;;;;5018871;28;19933;-78
2022/10/23 00:35:11;;;;;;;;;;;11.90;99.90;;;;;;5080014;28;19963;-78
2022/10/23 00:37:38;;;;;;;;;;;11.90;99.90;;;;;;5084683;28;19993;-78
2022/10/23 00:40:05;;;;;;;;;;;11.90;99.90;;;;;;5085578;28;20364;-78
2022/10/23 00:42:32;;;;;;;;;;;11.90;99.90;;;;;;5073524;28;19986;-78
2022/10/23 00:45:11;;;;;;;;;;;11.90;99.90;;;;;;5062307;28;19944;-78
2022/10/23 00:47:38;;;;;;;;;;;11.90;99.90;;;;;;5072405;28;19939;-78
2022/10/23 00:50:06;;;;;;;;;;;11.90;99.90;;;;;;5060996;28;21988;-78
2022/10/23 00:52:36;;;;;;;;;;;11.90;99.90;;;;;;5061391;28;19936;-78
2022/10/23 00:55:03;;;;;;;;;;;11.90;99.90;;;;;;5060525;28;20325;-78
2022/10/23 00:57:30;;;;;;;;;;;11.90;99.90;;;;;;5063379;28;19968;-78
2022/10/23 00:59:57;;;;;;;;;;;11.90;99.90;;;;;;5062525;28;19932;-77
2022/10/23 01:02:24;;;;;;;;;;;12.00;99.90;;;;;;5062476;28;19933;-77
2022/10/23 01:04:50;;;;;;;;;;;11.90;99.90;;;;;;5063433;28;20432;-77
2022/10/23 01:07:19;;;;;;;;;;;12.10;99.90;;;;;;5062635;28;20715;-78
2022/10/23 01:09:52;;;;;;;;;;;11.90;99.90;;;;;;5061205;28;20019;-78
2022/10/23 01:12:23;;;;;;;;;;;11.90;99.90;;;;;;5062587;28;19942;-77
2022/10/23 01:14:57;;;;;;;;;;;11.90;99.90;;;;;;5065344;28;20488;-78
2022/10/23 01:17:27;;;;;;;;;;;12.00;99.90;;;;;;5065688;28;19932;-78
2022/10/23 01:19:59;;;;;;;;;;;12.00;99.90;;;;;;5055893;28;20438;-77
2022/10/23 01:22:33;;;;;;;;;;;12.10;99.90;;;;;;5066487;28;19986;-77
2022/10/23 01:25:05;;;;;;;;;;;12.10;99.90;;;;;;5066973;28;20310;-78
2022/10/23 01:27:36;;;;;;;;;;;12.10;99.90;;;;;;5064988;28;20022;-78
2022/10/23 01:30:05;;;;;;;;;;;12.10;99.90;;;;;;5056112;28;19939;-77
2022/10/23 01:32:38;;;;;;;;;;;12.20;99.90;;;;;;5069964;28;19936;-77
2022/10/23 01:35:10;;;;;;;;;;;12.20;99.90;;;;;;5067890;28;19968;-77
2022/10/23 01:37:39;;;;;;;;;;;12.20;99.90;;;;;;5075271;28;20059;-77
2022/10/23 01:40:10;;;;;;;;;;;12.30;99.90;;;;;;5067602;28;20473;-78
2022/10/23 01:42:41;;;;;;;;;;;12.20;99.90;;;;;;5068602;28;19933;-78
2022/10/23 01:45:11;;;;;;;;;;;12.20;99.90;;;;;;5056751;28;20064;-77
2022/10/23 01:47:43;;;;;;;;;;;12.20;99.90;;;;;;5082943;28;20411;-77
2022/10/23 01:50:13;;;;;;;;;;;12.30;99.90;;;;;;5067913;28;19932;-77
2022/10/23 01:52:43;;;;;;;;;;;12.30;99.90;;;;;;5065337;28;20043;-77
2022/10/23 01:55:11;;;;;;;;;;;12.40;99.90;;;;;;5065138;28;20387;-77
2022/10/23 01:57:40;;;;;;;;;;;12.30;99.90;;;;;;5066796;28;19936;-78
2022/10/23 02:00:08;;;;;;;;;;;12.30;99.90;;;;;;5083288;28;19940;-78
2022/10/23 02:02:51;;;;;;;;;;;12.40;99.90;;;;;;5066758;28;19932;-77
2022/10/23 02:05:20;;;;;;;;;;;12.30;99.90;;;;;;5082652;28;20309;-78
2022/10/23 02:07:47;;;;;;;;;;;12.30;99.90;;;;;;5071132;28;19935;-77
2022/10/23 02:10:14;;;;;;;;;;;12.40;99.90;;;;;;5076293;28;19932;-77
2022/10/23 02:12:47;;;;;;;;;;;12.30;99.90;;;;;;5063730;28;19955;-77
2022/10/23 02:15:18;;;;;;;;;;;12.30;99.90;;;;;;5058141;28;19939;-77
2022/10/23 02:17:47;;;;;;;;;;;12.30;99.90;;;;;;5065086;28;19928;-78
2022/10/23 02:20:17;;;;;;;;;;;14.00;99.90;;;;;;5070189;28;19960;-78
2022/10/23 02:22:48;;;;;;;;;;;12.20;99.90;;;;;;5067626;28;19967;-78
2022/10/23 02:25:16;;;;;;;;;;;;;;;;;;5058046;28;19943;-77
2022/10/23 02:27:47;;;;;;;;;;;12.20;99.90;;;;;;5054050;28;19929;-78
2022/10/23 02:30:16;;;;;;;;;;;12.20;99.90;;;;;;5069205;28;19939;-77
2022/10/23 02:32:50;;;;;;;;;;;12.30;99.90;;;;;;5063937;28;20327;-78
2022/10/23 02:35:18;;;;;;;;;;;12.30;99.90;;;;;;5060513;28;19970;-77
2022/10/23 02:37:51;;;;;;;;;;;12.30;99.90;;;;;;5074183;28;19929;-78
2022/10/23 02:40:18;;;;;;;;;;;12.30;99.90;;;;;;5077073;28;19929;-78
2022/10/23 02:42:48;;;;;;;;;;;12.30;99.90;;;;;;5071378;28;19939;-78
2022/10/23 02:45:18;;;;;;;;;;;12.30;99.90;;;;;;5098471;28;19946;-81
2022/10/23 02:47:51;;;;;;;;;;;12.30;99.90;;;;;;5070156;28;19928;-76
2022/10/23 02:50:22;;;;;;;;;;;12.30;99.90;;;;;;5061750;28;19929;-77
2022/10/23 02:52:52;;;;;;;;;;;12.30;99.90;;;;;;5064116;28;20336;-78
2022/10/23 02:55:25;;;;;;;;;;;12.30;99.90;;;;;;5066151;28;19928;-77
2022/10/23 02:57:56;;;;;;;;;;;12.30;99.90;;;;;;5065532;28;20305;-78
2022/10/23 03:00:23;;;;;;;;;;;12.30;99.90;;;;;;5084007;28;19931;-77
2022/10/23 03:02:52;;;;;;;;;;;12.30;99.90;;;;;;5063273;28;19936;-78
2022/10/23 03:05:21;;;;;;;;;;;12.30;99.90;;;;;;5061630;28;20396;-77
2022/10/23 03:07:48;;;;;;;;;;;12.30;99.90;;;;;;5064505;28;19955;-78
2022/10/23 03:10:17;;;;;;;;;;;12.30;99.90;;;;;;5052494;28;20445;-78
2022/10/23 03:12:45;;;;;;;;;;;12.30;99.90;;;;;;5062893;28;19978;-78
2022/10/23 03:15:14;;;;;;;;;;;12.30;99.90;;;;;;5065509;28;19928;-78
2022/10/23 03:17:41;;;;;;;;;;;12.30;99.90;;;;;;5063108;28;19981;-78
2022/10/23 03:20:08;;;;;;;;;;;12.30;99.90;;;;;;5060332;28;19928;-78
2022/10/23 03:22:36;;;;;;;;;;;12.30;99.90;;;;;;5068180;28;19939;-78
2022/10/23 03:25:02;;;;;;;;;;;12.30;99.90;;;;;;5061855;28;19935;-77
2022/10/23 03:27:31;;;;;;;;;;;12.30;99.90;;;;;;5081022;28;19925;-77
2022/10/23 03:30:02;;;;;;;;;;;12.30;99.90;;;;;;5068126;28;19932;-77
2022/10/23 03:32:32;;;;;;;;;;;12.30;99.90;;;;;;5073812;28;19978;-79
2022/10/23 03:34:59;;;;;;;;;;;12.40;99.90;;;;;;5067955;28;19932;-78
2022/10/23 03:37:27;;;;;;;;;;;12.40;99.90;;;;;;5061956;28;20016;-78
2022/10/23 03:39:54;;;;;;;;;;;12.40;99.90;;;;;;5066660;28;20373;-79
2022/10/23 03:42:20;;;;;;;;;;;12.50;99.90;;;;;;5061915;28;20405;-78
2022/10/23 03:44:48;;;;;;;;;;;12.50;99.90;;;;;;5061387;28;19935;-78
2022/10/23 03:47:15;;;;;;;;;;;12.50;99.90;;;;;;5062720;28;19929;-78
2022/10/23 03:49:43;;;;;;;;;;;12.50;99.90;;;;;;5061776;28;19925;-78
2022/10/23 03:52:10;;;;;;;;;;;12.60;99.90;;;;;;5067532;28;19970;-78
2022/10/23 03:54:37;;;;;;;;;;;12.60;99.90;;;;;;5068457;28;19967;-77
2022/10/23 03:57:04;;;;;;;;;;;12.60;99.90;;;;;;5074222;28;19924;-78
2022/10/23 03:59:31;;;;;;;;;;;12.60;99.90;;;;;;5068481;28;19929;-78
2022/10/23 04:01:58;;;;;;;;;;;12.60;99.90;;;;;;5073336;28;19928;-78
2022/10/23 04:04:25;;;;;;;;;;;12.60;99.90;;;;;;5080608;28;19935;-78
2022/10/23 04:06:53;;;;;;;;;;;12.60;99.90;;;;;;5062345;28;19934;-77
2022/10/23 04:09:21;;;;;;;;;;;12.60;99.90;;;;;;5062488;28;19928;-78
2022/10/23 04:11:47;;;;;;;;;;;12.70;99.90;;;;;;5064450;28;19924;-78
2022/10/23 04:14:14;;;;;;;;;;;12.70;99.90;;;;;;5058775;28;19924;-78
2022/10/23 04:16:41;;;;;;;;;;;12.70;99.90;;;;;;5062320;28;19951;-78
2022/10/23 04:19:07;;;;;;;;;;;12.70;99.90;;;;;;5064818;28;20020;-78
2022/10/23 04:21:34;;;;;;;;;;;12.80;99.90;;;;;;5068291;28;19924;-78
2022/10/23 04:24:02;;;;;;;;;;;12.80;99.90;;;;;;5066219;28;19935;-78
2022/10/23 04:26:29;;;;;;;;;;;12.80;99.90;;;;;;5067365;28;19939;-78
2022/10/23 04:28:57;;;;;;;;;;;12.80;99.90;;;;;;5067503;28;19928;-78
2022/10/23 04:31:24;;;;;;;;;;;12.70;99.90;;;;;;5065792;28;19951;-78
2022/10/23 04:33:50;;;;;;;;;;;12.80;99.90;;;;;;5069281;28;20377;-78
2022/10/23 04:36:30;;;;;;;;;;;12.80;99.90;;;;;;5064820;28;19924;-78
2022/10/23 04:39:05;;;;;;;;;;;12.80;99.90;;;;;;5064918;28;19987;-78
2022/10/23 04:41:32;;;;;;;;;;;12.80;99.90;;;;;;5066763;28;19936;-79
2022/10/23 04:44:00;;;;;;;;;;;12.80;99.90;;;;;;5064403;28;19967;-79
2022/10/23 04:46:27;;;;;;;;;;;12.80;99.90;;;;;;5084706;28;19932;-77
2022/10/23 04:48:53;;;;;;;;;;;12.90;99.90;;;;;;5077998;28;20011;-77
2022/10/23 04:51:20;;;;;;;;;;;12.90;99.90;;;;;;5071501;28;19958;-79
2022/10/23 04:53:54;;;;;;;;;;;12.90;99.90;;;;;;5079473;28;19963;-78
2022/10/23 04:56:36;;;;;;;;;;;12.90;99.90;;;;;;5070711;28;19952;-79
2022/10/23 04:59:08;;;;;;;;;;;12.90;99.90;;;;;;5070344;28;19975;-78
2022/10/23 05:01:36;;;;;;;;;;;12.90;99.90;;;;;;5081211;28;19925;-79
2022/10/23 05:04:05;;;;;;;;;;;13.00;99.90;;;;;;5104589;28;20211;-78
2022/10/23 05:06:37;;;;;;;;;;;13.00;99.90;;;;;;5074572;28;20083;-78
2022/10/23 05:09:12;;;;;;;;;;;13.00;99.90;;;;;;5060802;28;19951;-78
2022/10/23 05:12:01;;;;;;;;;;;13.00;99.90;;;;;;5062340;28;19997;-77
2022/10/23 05:14:28;;;;;;;;;;;13.10;99.90;;;;;;5067252;28;19928;-77
2022/10/23 05:16:57;;;;;;;;;;;13.00;99.90;;;;;;5076376;28;19932;-79
2022/10/23 05:19:27;;;;;;;;;;;13.10;99.90;;;;;;5083110;28;19927;-78
2022/10/23 05:21:55;;;;;;;;;;;11.00;99.90;;;;;;5066237;28;19929;-77
2022/10/23 05:24:26;;;;;;;;;;;13.10;99.90;;;;;;5069450;28;19951;-78
2022/10/23 05:26:57;;;;;;;;;;;13.10;99.90;;;;;;5063295;28;19986;-79
2022/10/23 05:29:25;;;;;;;;;;;13.10;99.90;;;;;;5062590;28;20416;-78
2022/10/23 05:31:56;;;;;;;;;;;13.10;99.90;;;;;;5088164;28;19982;-79
2022/10/23 05:34:25;;;;;;;;;;;13.10;99.90;;;;;;5061674;28;19960;-79
2022/10/23 05:36:52;;;;;;;;;;;13.10;99.90;;;;;;5062522;28;19925;-78
2022/10/23 05:39:22;;;;;;;;;;;13.10;99.90;;;;;;5060616;28;20023;-77
2022/10/23 05:41:50;;;;;;;;;;;13.10;99.90;;;;;;5060796;28;19983;-78
2022/10/23 05:44:21;;;;;;;;;;;13.10;99.90;;;;;;5060855;28;20417;-79
2022/10/23 05:47:10;;;;;;;;;;;13.10;99.90;;;;;;5055743;28;20016;-79
2022/10/23 05:49:56;;;;;;;;;;;13.10;99.90;;;;;;5084230;28;19959;-78
2022/10/23 05:52:52;;;;;;;;;;;13.90;99.90;;;;;;5063503;28;19928;-78
2022/10/23 05:55:45;;;;;;;;;;;13.10;99.90;;;;;;5042563;28;19924;-78
2022/10/23 05:58:30;;;;;;;;;;;13.20;99.90;;;;;;5063619;28;19952;-78
2022/10/23 06:01:06;;;;;;;;;;;13.20;99.90;;;;;;5063925;28;19924;-78
2022/10/23 06:03:58;;;;;;;;;;;13.20;99.90;;;;;;5058049;28;20265;-77
2022/10/23 06:06:31;;;;;;;;;;;13.20;99.90;;;;;;5065869;28;19928;-78
2022/10/23 06:08:58;;;;;;;;;;;13.20;99.90;;;;;;5059528;28;19935;-78
2022/10/23 06:11:25;;;;;;;;;;;13.20;99.90;;;;;;5067094;28;19936;-77
2022/10/23 06:14:00;;;;;;;;;;;13.20;99.90;;;;;;5079227;28;19951;-78
2022/10/23 06:16:27;;;;;;;;;;;13.20;99.90;;;;;;5063173;28;20297;-78
2022/10/23 06:18:54;;;;;;;;;;;13.20;99.90;;;;;;5080025;28;19966;-77
2022/10/23 06:21:22;;;;;;;;;;;13.20;99.90;;;;;;5084381;28;20031;-78
2022/10/23 06:23:50;;;;;;;;;;;13.20;99.90;;;;;;5062418;28;19932;-78
2022/10/23 06:26:30;;;;;;;;;;;13.20;99.90;;;;;;5064756;28;19988;-77
2022/10/23 06:29:04;;;;;;;;;;;13.30;99.90;;;;;;5068921;28;20388;-78
2022/10/23 06:31:30;;;;;;;;;;;13.30;99.90;;;;;;5062385;28;19931;-78
2022/10/23 06:33:58;;;;;;;;;;;13.30;99.90;;;;;;5062863;28;19928;-78
2022/10/23 06:36:27;;;;;;;;;;;13.40;99.90;;;;;;5058543;28;20245;-78
2022/10/23 06:38:59;;;;;;;;;;;13.40;99.90;;;;;;5051898;28;19929;-79
2022/10/23 06:41:46;;;;;;;;;;;13.50;99.90;;;;;;5069482;28;19951;-78
2022/10/23 06:44:33;;;;;;;;;;;13.50;99.90;;;;;;5067212;28;19928;-79
2022/10/23 06:47:09;;;;;;;;;;;13.50;99.90;;;;;;5064357;28;20002;-79
2022/10/23 06:49:54;;;;;;;;;;;13.50;99.90;;;;;;5074956;28;20460;-79
2022/10/23 06:52:23;;;;;;;;;;;13.70;99.90;;;;;;5071923;28;19929;-79
2022/10/23 06:54:50;;;;;;;;;;;13.60;99.90;;;;;;5072095;28;19977;-77
2022/10/23 06:57:20;;;;;;;;;;;13.70;99.90;;;;;;5074939;28;19929;-79
2022/10/23 06:59:48;;;;;;;;;;;13.80;99.90;;;;;;5092002;28;19968;-79
2022/10/23 07:02:15;;;;;;;;;;;13.80;99.90;;;;;;5074793;28;20086;-79
2022/10/23 07:04:42;;;;;;;;;;;13.90;99.90;;;;;;5074487;28;19995;-80
2022/10/23 07:07:16;;;;;;;;;;;14.00;99.90;;;;;;5072426;28;19928;-78
2022/10/23 07:09:49;;;;;;;;;;;14.10;99.90;;;;;;5066028;28;19964;-78
2022/10/23 07:12:25;;;;;;;;;;;14.20;99.90;;;;;;5075329;28;19937;-80
2022/10/23 07:15:07;;;;;;;;;;;14.20;99.90;;;;;;5057813;28;19952;-80
2022/10/23 07:17:34;;;;;;;;;;;14.40;99.90;;;;;;5073909;28;19968;-79
2022/10/23 07:20:01;;;;;;;;;;;14.40;99.90;;;;;;5069240;28;20389;-78
2022/10/23 07:22:27;;;;;;;;;;;14.50;99.90;;;;;;5067556;28;19939;-79
2022/10/23 07:25:06;;;;;;;;;;;14.60;99.90;;;;;;5073926;28;19991;-79
2022/10/23 07:27:37;;;;;;;;;;;14.80;99.90;;;;;;5083078;28;19952;-79
2022/10/23 07:30:05;;;;;;;;;;;14.90;99.90;;;;;;5062779;28;19960;-79
2022/10/23 07:32:39;;;;;;;;;;;15.00;99.90;;;;;;5058651;28;19939;-78
2022/10/23 07:35:46;;;;;;;;;;;15.10;99.90;;;;;;5059085;28;20027;-77
2022/10/23 07:38:18;;;;;;;;;;;15.20;99.90;;;;;;5061379;28;20390;-77
2022/10/23 07:40:52;;;;;;;;;;;15.20;99.90;;;;;;5064837;28;19935;-78
2022/10/23 07:43:20;;;;;;;;;;;15.10;99.90;;;;;;5053820;28;20398;-78
2022/10/23 07:45:48;;;;;;;;;;;15.40;99.90;;;;;;5066560;28;19925;-79
2022/10/23 07:48:22;;;;;;;;;;;15.50;99.90;;;;;;5069376;28;19931;-79
2022/10/23 07:50:59;;;;;;;;;;;15.70;99.90;;;;;;5095089;28;19915;-79
2022/10/23 07:53:26;;;;;;;;;;;15.80;99.90;;;;;;5071423;28;20027;-78
2022/10/23 07:55:57;;;;;;;;;;;15.90;99.90;;;;;;5070443;28;19935;-83
2022/10/23 07:58:26;;;;;;;;;;;16.00;99.90;;;;;;5065208;28;20018;-81
2022/10/23 08:01:11;;;;;;;;;;;16.20;99.90;;;;;;5074585;28;19932;-82
2022/10/23 08:03:40;;;;;;;;;;;16.30;99.90;;;;;;5067041;28;19948;-81
2022/10/23 08:06:07;;;;;;;;;;;16.40;99.90;;;;;;5060300;28;19936;-81
2022/10/23 08:08:35;;;;;;;;;;;16.50;99.90;;;;;;5060443;28;19964;-81
2022/10/23 08:11:05;;;;;;;;;;;16.70;99.90;;;;;;5067584;28;19925;-81
2022/10/23 08:13:43;;;;;;;;;;;16.80;99.90;;;;;;5063869;28;20011;-78
2022/10/23 08:16:11;;;;;;;;;;;16.90;99.90;;;;;;5069465;28;20292;-79
2022/10/23 08:19:10;;;;;;;;;;;17.10;99.90;;;;;;5064790;28;20025;-79
2022/10/23 08:21:39;;;;;;;;;;;17.60;99.90;;;;;;5065273;28;20019;-79
2022/10/23 08:24:12;;;;;;;;;;;17.60;99.90;;;;;;5071025;28;19929;-79
2022/10/23 08:26:40;;;;;;;;;;;17.90;99.90;;;;;;5068998;28;19924;-79
2022/10/23 08:29:08;;;;;;;;;;;18.20;99.90;;;;;;5065579;28;19960;-79
2022/10/23 08:31:35;;;;;;;;;;;18.50;99.90;;;;;;5073675;28;19960;-79
2022/10/23 08:34:21;;;;;;;;;;;18.70;99.90;;;;;;5074906;28;19935;-79
2022/10/23 08:36:50;;;;;;;;;;;19.00;99.90;;;;;;5073041;28;20389;-79
2022/10/23 08:39:17;;;;;;;;;;;19.20;99.90;;;;;;5074681;28;19936;-79
2022/10/23 08:42:17;;;;;;;;;;;19.50;99.90;;;;;;5076704;22;19932;-79
2022/10/23 08:44:47;;;;;;;;;;;19.50;99.90;;;;;;5052062;28;20311;-80
2022/10/23 08:47:18;;;;;;;;;;;19.70;99.90;;;;;;5056960;28;19978;-80
2022/10/23 08:50:18;;;;;;;;;;;;;;;;;;5024471;28;20338;-79
2022/10/23 08:52:49;;;;;;;;;;;19.80;99.90;;;;;;5060561;28;19928;-77
2022/10/23 08:55:19;;;;;;;;;;;19.80;99.90;;;;;;5063855;28;20296;-78
2022/10/23 08:57:51;;;;;;;;;;;19.80;99.90;;;;;;5067684;28;19928;-80
2022/10/23 09:00:18;;;;;;;;;;;;;;;;;;5062069;28;19967;-77
2022/10/23 09:02:46;;;;;;;;;;;19.80;99.90;;;;;;5061268;28;19994;-76
2022/10/23 09:05:15;;;;;;;;;;;19.70;99.90;;;;;;5053434;28;19932;-80
2022/10/23 09:07:45;;;;;;;;;;;19.60;99.90;;;;;;5053307;28;19979;-79
2022/10/23 09:10:27;;;;;;;;;;;19.60;99.90;;;;;;5051921;28;19934;-78
2022/10/23 09:12:59;;;;;;;;;;;19.50;99.90;;;;;;5067332;28;19929;-79
2022/10/23 09:15:29;;;;;;;;;;;19.40;99.90;;;;;;5046321;28;19928;-77
2022/10/23 09:17:57;;;;;;;;;;;19.40;99.90;;;;;;5048797;28;20068;-78
2022/10/23 09:20:26;;;;;;;;;;;19.40;99.90;;;;;;5055989;28;19928;-78
2022/10/23 09:22:54;;;;;;;;;;;19.40;99.90;;;;;;5071333;28;19931;-78
2022/10/23 09:25:28;;;;;;;;;;;19.50;99.90;;;;;;5070798;28;19978;-78
2022/10/23 09:27:56;;;;;;;;;;;19.50;99.90;;;;;;5059396;28;20331;-78
2022/10/23 09:30:30;;;;;;;;;;;19.60;99.90;;;;;;5070775;28;19974;-78
2022/10/23 09:32:59;;;;;;;;;;;19.60;99.90;;;;;;5054071;28;20030;-78
2022/10/23 09:35:27;;;;;;;;;;;19.60;99.90;;;;;;5048524;28;19924;-77
2022/10/23 09:37:53;;;;;;;;;;;19.60;99.90;;;;;;5067516;28;20633;-77
2022/10/23 09:40:24;;;;;;;;;;;19.70;99.90;;;;;;5067923;28;19933;-78
2022/10/23 09:42:56;;;;;;;;;;;19.70;99.90;;;;;;5070654;28;20061;-78
2022/10/23 09:45:24;;;;;;;;;;;19.80;99.90;;;;;;5073944;28;19924;-78
2022/10/23 09:48:04;;;;;;;;;;;19.80;99.90;;;;;;5070290;28;19929;-78
2022/10/23 09:50:31;;;;;;;;;;;20.00;99.90;;;;;;5056430;28;19925;-77
2022/10/23 09:52:58;;;;;;;;;;;20.00;99.90;;;;;;5054972;28;19940;-78
2022/10/23 09:55:26;;;;;;;;;;;20.10;99.90;;;;;;5055063;28;19932;-77
2022/10/23 09:57:54;;;;;;;;;;;20.10;99.90;;;;;;5069793;28;19936;-78
2022/10/23 10:00:22;;;;;;;;;;;20.30;99.90;;;;;;5073228;28;20031;-77
2022/10/23 10:02:57;;;;;;;;;;;20.30;99.90;;;;;;5064398;28;19933;-78
2022/10/23 10:05:38;;;;;;;;;;;20.50;99.90;;;;;;5070134;28;19924;-78
2022/10/23 10:08:26;;;;;;;;;;;20.60;99.90;;;;;;5036597;28;19929;-79
2022/10/23 10:10:55;;;;;;;;;;;20.70;99.90;;;;;;5036334;28;19929;-77
2022/10/23 10:13:33;;;;;;;;;;;20.70;99.90;;;;;;5055732;28;19932;-79
2022/10/23 10:16:04;;;;;;;;;;;20.70;99.90;;;;;;5055631;28;20407;-79
2022/10/23 10:18:42;;;;;;;;;;;20.70;99.90;;;;;;5056016;28;19925;-78
2022/10/23 10:21:25;;;;;;;;;;;20.60;99.90;;;;;;5056233;28;19994;-78
2022/10/23 10:24:08;;;;;;;;;;;20.60;99.90;;;;;;5055369;28;19925;-78
2022/10/23 10:26:46;;;;;;;;;;;20.50;99.90;;;;;;5055750;28;20354;-78
2022/10/23 10:29:38;;;;;;;;;;;20.50;99.90;;;;;;5051961;28;19929;-77
2022/10/23 10:32:16;;;;;;;;;;;20.50;99.90;;;;;;5068210;28;20103;-77
2022/10/23 10:34:57;;;;;;;;;;;20.60;99.90;;;;;;5076789;28;19939;-78
2022/10/23 10:37:48;;;;;;;;;;;20.60;99.90;;;;;;5075726;28;20419;-78
2022/10/23 10:40:26;;;;;;;;;;;20.60;99.90;;;;;;5076201;28;19936;-78
2022/10/23 10:43:08;;;;;;;;;;;20.60;99.90;;;;;;5072361;28;20421;-77
2022/10/23 10:45:48;;;;;;;;;;;20.70;99.90;;;;;;5072658;28;19935;-77
2022/10/23 10:48:36;;;;;;;;;;;20.80;99.90;;;;;;5072791;28;20027;-77
2022/10/23 10:51:24;;;;;;;;;;;20.80;99.90;;;;;;5071929;28;19935;-77
2022/10/23 10:54:12;;;;;;;;;;;20.90;99.90;;;;;;5075115;28;20030;-77
2022/10/23 10:56:54;;;;;;;;;;;21.00;99.90;;;;;;5074786;28;19925;-77
2022/10/23 10:59:40;;;;;;;;;;;21.00;99.90;;;;;;5066204;28;19932;-78
2022/10/23 11:02:26;;;;;;;;;;;21.00;99.90;;;;;;5051732;28;20028;-77
2022/10/23 11:05:07;;;;;;;;;;;21.10;99.90;;;;;;5061283;28;19935;-77
2022/10/23 11:07:53;;;;;;;;;;;21.20;99.90;;;;;;5071101;28;19928;-77
2022/10/23 11:10:27;;;;;;;;;;;21.50;99.90;;;;;;5072857;28;19928;-77
2022/10/23 11:13:06;;;;;;;;;;;21.40;99.90;;;;;;5073730;28;19932;-77
2022/10/23 11:15:46;;;;;;;;;;;22.30;99.90;;;;;;5073242;28;19934;-77
2022/10/23 11:18:27;;;;;;;;;;;21.60;99.90;;;;;;5071863;28;19924;-77
2022/10/23 11:21:12;;;;;;;;;;;21.60;99.90;;;;;;5070480;28;19928;-77
2022/10/23 11:24:06;;;;;;;;;;;21.50;99.90;;;;;;5071503;28;19928;-77
2022/10/23 11:26:45;;;;;;;;;;;21.40;99.90;;;;;;5072891;28;19928;-77
2022/10/23 11:29:50;;;;;;;;;;;21.30;99.90;;;;;;5073242;28;19928;-77
2022/10/23 11:32:42;;;;;;;;;;;21.30;99.90;;;;;;5072695;28;19928;-77
2022/10/23 11:35:34;;;;;;;;;;;21.50;99.90;;;;;;5069426;28;19925;-76
2022/10/23 11:38:19;;;;;;;;;;;21.50;99.90;;;;;;5069712;28;19934;-77
2022/10/23 11:41:00;;;;;;;;;;;21.60;99.90;;;;;;5071989;28;19928;-78
2022/10/23 11:43:39;;;;;;;;;;;21.60;99.90;;;;;;5071650;28;19935;-77
2022/10/23 11:46:29;;;;;;;;;;;21.50;99.90;;;;;;5072080;28;19943;-78
2022/10/23 11:49:01;;;;;;;;;;;21.40;99.90;;;;;;5071627;28;19945;-78
2022/10/23 11:54:26;;;;;;;;;;;21.10;99.90;;;;;;5066961;28;19992;-78
2022/10/23 11:57:16;;;;;;;;;;;21.10;99.90;;;;;;5071816;28;20019;-78
2022/10/23 11:59:56;;;;;;;;;;;20.90;99.90;;;;;;5061988;28;19928;-77
2022/10/23 12:02:36;;;;;;;;;;;20.80;99.90;;;;;;5071920;28;19928;-77
2022/10/23 12:05:08;;;;;;;;;;;20.70;99.90;;;;;;5073962;28;19964;-77
2022/10/23 12:07:43;;;;;;;;;;;20.70;99.90;;;;;;5071815;28;20446;-78
2022/10/23 12:10:23;;;;;;;;;;;20.80;99.90;;;;;;5075278;28;19946;-79
2022/10/23 12:13:03;;;;;;;;;;;21.00;99.90;;;;;;5075585;28;19925;-78
2022/10/23 12:15:33;;;;;;;;;;;21.10;99.90;;;;;;5075934;28;19929;-78
2022/10/23 12:18:26;;;;;;;;;;;21.30;99.90;;;;;;5076909;28;19929;-78
2022/10/23 12:24:07;;;;;;;;;;;21.60;99.90;;;;;;5073993;28;19992;-78
2022/10/23 12:26:53;;;;;;;;;;;21.70;99.90;;;;;;5075601;28;20437;-79
2022/10/23 12:29:41;;;;;;;;;;;21.80;99.90;;;;;;5077609;28;19955;-79
2022/10/23 12:32:23;;;;;;;;;;;21.90;99.90;;;;;;5075544;28;19931;-78
2022/10/23 12:35:18;;;;;;;;;;;21.90;99.90;;;;;;5074669;28;19928;-78
2022/10/23 12:37:59;;;;;;;;;;;21.90;99.90;;;;;;5074361;28;20136;-78
2022/10/23 12:40:38;;;;;;;;;;;21.60;99.90;;;;;;5076561;28;19975;-78
2022/10/23 12:43:35;;;;;;;;;;;21.60;99.90;;;;;;5072734;28;19928;-78
2022/10/23 12:46:18;;;;;;;;;;;21.60;99.90;;;;;;5074329;28;19984;-78
2022/10/23 12:48:58;;;;;;;;;;;21.60;99.90;;;;;;5073466;28;19936;-79
2022/10/23 12:51:34;;;;;;;;;;;21.60;99.90;;;;;;5073207;28;19924;-78
2022/10/23 12:54:18;;;;;;;;;;;21.70;99.90;;;;;;5072736;28;19936;-77
2022/10/23 12:56:58;;;;;;;;;;;21.60;99.90;;;;;;5069779;28;19924;-77
2022/10/23 12:59:31;;;;;;;;;;;21.70;99.90;;;;;;5071240;28;19963;-77
2022/10/23 13:02:14;;;;;;;;;;;21.60;99.90;;;;;;5075146;28;19975;-78
2022/10/23 13:04:47;;;;;;;;;;;21.60;99.90;;;;;;5077857;28;19928;-78
2022/10/23 13:07:18;;;;;;;;;;;21.60;99.90;;;;;;5072070;28;19928;-77
2022/10/23 13:09:57;;;;;;;;;;;21.50;99.90;;;;;;5070241;28;19932;-77
2022/10/23 13:12:41;;;;;;;;;;;21.50;99.90;;;;;;5070324;28;19994;-77
2022/10/23 13:15:18;;;;;;;;;;;21.30;99.90;;;;;;5070736;28;19928;-77
2022/10/23 13:18:03;;;;;;;;;;;21.30;99.90;;;;;;5073022;28;20361;-77
2022/10/23 13:21:00;;;;;;;;;;;21.20;99.90;;;;;;5071866;28;20416;-77
2022/10/23 13:23:35;;;;;;;;;;;21.20;99.90;;;;;;5071912;28;19929;-77
2022/10/23 13:26:12;;;;;;;;;;;22.20;99.90;;;;;;5068687;28;20577;-77
2022/10/23 13:28:49;;;;;;;;;;;21.10;99.90;;;;;;5070524;28;20307;-77
2022/10/23 13:31:28;;;;;;;;;;;21.00;99.90;;;;;;5068607;28;20300;-78
2022/10/23 13:34:06;;;;;;;;;;;21.00;99.90;;;;;;5071121;28;20037;-77
2022/10/23 13:36:36;;;;;;;;;;;20.90;99.90;;;;;;5071581;28;19925;-78
2022/10/23 13:39:13;;;;;;;;;;;20.80;99.90;;;;;;5070423;28;20302;-78
2022/10/23 13:41:41;;;;;;;;;;;20.80;99.90;;;;;;5071377;28;19932;-78
2022/10/23 13:44:10;;;;;;;;;;;20.70;99.90;;;;;;5070931;28;19924;-78
2022/10/23 13:46:37;;;;;;;;;;;20.70;99.90;;;;;;5071349;28;19982;-78
2022/10/23 13:49:04;;;;;;;;;;;20.60;99.90;;;;;;5071430;28;19924;-78
2022/10/23 13:51:34;;;;;;;;;;;20.50;99.90;;;;;;5069521;28;20276;-77
2022/10/23 13:54:01;;;;;;;;;;;20.50;99.90;;;;;;5071191;28;19935;-78
2022/10/23 13:56:30;;;;;;;;;;;20.50;99.90;;;;;;5070641;28;20074;-78
2022/10/23 13:58:58;;;;;;;;;;;20.50;99.90;;;;;;5070108;28;20410;-78
2022/10/23 14:01:27;;;;;;;;;;;20.60;99.90;;;;;;5072506;28;19925;-78
2022/10/23 14:03:55;;;;;;;;;;;20.60;99.90;;;;;;5070703;28;19932;-77
2022/10/23 14:06:22;;;;;;;;;;;20.60;99.90;;;;;;5070119;28;19928;-78
2022/10/23 14:08:49;;;;;;;;;;;20.50;99.90;;;;;;5068353;28;19925;-77
2022/10/23 14:11:17;;;;;;;;;;;20.50;99.90;;;;;;5068410;28;19928;-77
2022/10/23 14:13:46;;;;;;;;;;;20.50;99.90;;;;;;5056099;28;19932;-77
2022/10/23 14:16:16;;;;;;;;;;;20.50;99.90;;;;;;5049900;28;20437;-78
2022/10/23 14:18:43;;;;;;;;;;;20.40;99.90;;;;;;5049999;28;19972;-78
2022/10/23 14:21:12;;;;;;;;;;;20.40;99.90;;;;;;5049309;28;19933;-78
2022/10/23 14:23:39;;;;;;;;;;;20.40;99.90;;;;;;5050479;28;19932;-77
2022/10/23 14:26:08;;;;;;;;;;;20.40;99.90;;;;;;5050619;28;19925;-78
2022/10/23 14:28:36;;;;;;;;;;;20.40;99.90;;;;;;5051222;28;19929;-77
2022/10/23 14:31:05;;;;;;;;;;;20.40;99.90;;;;;;5052367;28;19929;-77
2022/10/23 14:33:34;;;;;;;;;;;20.30;99.90;;;;;;5054802;28;19933;-77
2022/10/23 14:36:08;;;;;;;;;;;20.30;99.90;;;;;;5055674;28;19944;-78
2022/10/23 14:38:37;;;;;;;;;;;20.20;99.90;;;;;;5052379;28;19929;-77
2022/10/23 14:41:09;;;;;;;;;;;20.20;99.90;;;;;;5054331;28;19928;-77
2022/10/23 14:43:36;;;;;;;;;;;20.10;99.90;;;;;;5050848;28;19972;-76
2022/10/23 14:46:13;;;;;;;;;;;20.10;99.90;;;;;;5055996;28;20042;-77
2022/10/23 14:48:40;;;;;;;;;;;20.10;99.90;;;;;;5051634;28;20168;-76
2022/10/23 14:51:14;;;;;;;;;;;20.10;99.90;;;;;;5054191;28;19924;-76
2022/10/23 14:53:41;;;;;;;;;;;20.00;99.90;;;;;;5053866;28;19987;-78
2022/10/23 14:56:10;;;;;;;;;;;20.00;99.90;;;;;;5050568;28;19928;-76
2022/10/23 14:58:42;;;;;;;;;;;19.90;99.90;;;;;;5058720;28;19936;-78
2022/10/23 15:01:10;;;;;;;;;;;19.90;99.90;;;;;;5068488;28;19934;-77